Time;durP1;ratioP1;P1;durP2;ratioP2;P2;SDS_P1;SDS_P2;PMS_P1;PMS_P2;Temp;Humidity;BMP_temperature;BMP_pressure;BME280_temperature;BME280_humidity;BME280_pressure;Samples;Min_cycle;Max_cycle;Signal;HPM_P1;HPM_P2
2021/06/12 00:00:13;;;;;;;9.70;7.43;;;21.00;7.60;22.40;100792.00;;;;5129841;27;20444;-81
2021/06/12 00:02:42;;;;;;;9.48;7.68;;;21.00;7.90;22.30;100791.00;;;;5122651;28;20418;-83
2021/06/12 00:05:11;;;;;;;10.48;7.90;;;21.10;8.20;22.40;100788.00;;;;5119682;27;20412;-83
2021/06/12 00:07:41;;;;;;;8.88;7.47;;;21.10;9.00;22.30;100793.00;;;;5122055;28;20416;-82
2021/06/12 00:10:14;;;;;;;9.55;7.90;;;21.10;8.40;22.30;100786.00;;;;5118011;28;20489;-82
2021/06/12 00:12:42;;;;;;;11.00;7.75;;;21.10;10.40;22.30;100792.00;;;;5116341;28;20436;-80
2021/06/12 00:15:14;;;;;;;9.43;7.90;;;21.10;10.50;22.30;100785.00;;;;5110871;28;20427;-81
2021/06/12 00:17:42;;;;;;;11.23;7.90;;;21.10;10.90;22.20;100783.00;;;;5110557;28;20843;-81
2021/06/12 00:20:15;;;;;;;10.60;7.93;;;21.00;12.10;22.20;100788.00;;;;5108191;28;20419;-81
2021/06/12 00:22:45;;;;;;;10.73;7.90;;;21.00;12.30;22.20;100792.00;;;;5110185;28;20428;-81
2021/06/12 00:25:15;;;;;;;11.00;8.38;;;20.90;13.70;22.10;100790.00;;;;5112364;28;20416;-80
2021/06/12 00:27:43;;;;;;;10.35;8.40;;;20.90;13.20;22.00;100789.00;;;;5116607;28;20427;-82
2021/06/12 00:30:13;;;;;;;11.45;8.40;;;20.80;14.10;22.00;100799.00;;;;5111895;28;20416;-80
2021/06/12 00:32:41;;;;;;;11.82;8.80;;;20.70;16.70;21.90;100788.00;;;;5104793;28;20459;-80
2021/06/12 00:35:12;;;;;;;10.48;8.40;;;20.70;17.50;21.90;100792.00;;;;5106095;28;20477;-81
2021/06/12 00:37:40;;;;;;;11.60;8.75;;;20.60;17.50;21.90;100797.00;;;;5104970;28;20502;-80
2021/06/12 00:40:13;;;;;;;11.38;8.68;;;20.50;19.10;21.80;100786.00;;;;5110681;28;20499;-80
2021/06/12 00:42:42;;;;;;;11.32;8.63;;;20.50;20.10;21.80;100787.00;;;;5113069;28;20520;-82
2021/06/12 00:45:13;;;;;;;10.47;8.80;;;20.40;19.50;21.80;100783.00;;;;5098362;28;20449;-82
2021/06/12 00:47:41;;;;;;;11.55;9.10;;;20.40;20.80;21.80;100782.00;;;;5112755;28;20500;-81
2021/06/12 00:50:11;;;;;;;13.38;9.85;;;20.40;21.60;21.80;100785.00;;;;5114915;28;20476;-81
2021/06/12 00:52:39;;;;;;;12.00;10.20;;;20.40;21.60;21.80;100787.00;;;;5113466;28;20920;-80
2021/06/12 00:55:12;;;;;;;11.52;10.13;;;20.40;21.60;21.80;100778.00;;;;5107481;28;20419;-81
2021/06/12 00:57:40;;;;;;;12.87;11.33;;;20.30;21.50;21.80;100783.00;;;;5122722;27;20527;-81
2021/06/12 01:00:11;;;;;;;12.40;11.00;;;20.50;22.10;21.80;100784.00;;;;5104760;28;20421;-82
2021/06/12 01:02:39;;;;;;;12.40;10.98;;;20.40;21.30;21.80;100772.00;;;;5106115;28;20511;-79
2021/06/12 01:05:10;;;;;;;12.03;10.83;;;20.40;21.60;21.80;100784.00;;;;5105329;28;21024;-80
2021/06/12 01:07:38;;;;;;;12.90;11.60;;;20.40;21.60;21.70;100769.00;;;;5104642;28;20511;-81
2021/06/12 01:10:12;;;;;;;12.73;11.10;;;20.40;22.60;21.70;100776.00;;;;5107015;28;20426;-81
2021/06/12 01:12:51;;;;;;;13.35;12.00;;;20.40;23.50;21.60;100772.00;;;;5107603;28;20875;-81
2021/06/12 01:15:21;;;;;;;13.80;11.70;;;20.20;24.00;21.60;100768.00;;;;5104632;28;20431;-81
2021/06/12 01:17:57;;;;;;;14.52;13.02;;;20.20;24.20;21.50;100765.00;;;;5098264;28;20450;-82
2021/06/12 01:20:52;;;;;;;13.37;12.07;;;20.20;25.00;21.50;100778.00;;;;5107239;28;20462;-81
2021/06/12 01:24:14;;;;;;;12.63;11.32;;;20.10;25.50;21.40;100768.00;;;;5115161;28;20426;-82
2021/06/12 01:27:39;;;;;;;12.55;11.02;;;20.00;24.90;21.40;100770.00;;;;5112689;28;20446;-81
2021/06/12 01:30:20;;;;;;;12.55;11.25;;;20.00;25.40;21.30;100765.00;;;;5124686;27;20424;-81
2021/06/12 01:32:52;;;;;;;12.15;10.50;;;19.90;26.60;21.30;100756.00;;;;5111350;27;21213;-81
2021/06/12 01:35:29;;;;;;;12.32;10.25;;;19.90;26.80;21.30;100751.00;;;;5111828;28;20491;-81
2021/06/12 01:37:58;;;;;;;11.10;9.95;;;19.90;25.90;21.30;100748.00;;;;5107610;28;20428;-81
2021/06/12 01:40:30;;;;;;;13.10;10.65;;;20.00;25.50;21.30;100746.00;;;;5109138;28;20828;-81
2021/06/12 01:42:59;;;;;;;11.38;9.60;;;19.90;25.40;21.30;100740.00;;;;5108070;27;20943;-81
2021/06/12 01:45:29;;;;;;;11.02;9.85;;;19.90;24.90;21.20;100738.00;;;;5107861;27;20439;-82
2021/06/12 01:47:59;;;;;;;12.23;9.75;;;19.90;25.10;21.20;100739.00;;;;5107190;27;21313;-82
2021/06/12 01:50:27;;;;;;;11.18;9.98;;;19.80;25.80;21.10;100741.00;;;;5107264;28;20423;-81
2021/06/12 01:52:58;;;;;;;12.63;9.60;;;19.80;25.50;21.10;100741.00;;;;5107269;27;20446;-81
2021/06/12 01:55:29;;;;;;;12.10;10.00;;;19.80;25.90;21.00;100751.00;;;;5109027;27;20416;-79
2021/06/12 01:58:00;;;;;;;14.48;9.65;;;19.80;26.20;21.00;100742.00;;;;5105591;27;20416;-80
2021/06/12 02:00:30;;;;;;;13.90;9.90;;;19.70;26.60;20.90;100735.00;;;;5107060;28;20434;-81
2021/06/12 02:02:59;;;;;;;12.90;9.70;;;19.60;26.20;20.90;100747.00;;;;5111543;27;20913;-82
2021/06/12 02:05:28;;;;;;;12.80;10.15;;;19.60;26.90;20.80;100755.00;;;;5108683;27;20500;-82
2021/06/12 02:07:57;;;;;;;11.80;9.60;;;19.50;27.80;20.80;100750.00;;;;5111768;27;20424;-80
2021/06/12 02:10:30;;;;;;;13.85;10.20;;;19.50;28.40;20.70;100748.00;;;;5114503;27;20431;-81
2021/06/12 02:12:59;;;;;;;11.80;10.60;;;19.50;28.60;20.70;100735.00;;;;5124649;27;20423;-80
2021/06/12 02:15:31;;;;;;;12.98;11.68;;;19.40;28.80;20.70;100744.00;;;;5121251;28;20798;-81
2021/06/12 02:18:02;;;;;;;13.00;11.70;;;19.40;29.00;20.60;100740.00;;;;5124642;28;21045;-82
2021/06/12 02:20:32;;;;;;;13.77;12.48;;;19.40;29.90;20.50;100733.00;;;;5124925;27;20429;-82
2021/06/12 02:23:03;;;;;;;13.10;11.80;;;19.30;30.30;20.50;100745.00;;;;5121910;28;20420;-81
2021/06/12 02:25:32;;;;;;;13.00;11.20;;;19.30;31.00;20.40;100739.00;;;;5122002;27;20415;-81
2021/06/12 02:28:04;;;;;;;13.68;11.90;;;19.10;31.20;20.40;100739.00;;;;5122016;27;20412;-82
2021/06/12 02:30:40;;;;;;;12.13;10.85;;;19.10;32.00;20.40;100736.00;;;;5124521;27;20426;-81
2021/06/12 02:33:12;;;;;;;12.95;10.90;;;19.10;31.60;20.40;100740.00;;;;5125128;27;20424;-80
2021/06/12 02:35:40;;;;;;;14.32;11.50;;;19.00;32.40;20.40;100748.00;;;;5123761;27;20420;-80
2021/06/12 02:38:09;;;;;;;13.57;11.13;;;19.00;32.30;20.30;100742.00;;;;5116675;27;20420;-81
2021/06/12 02:40:37;;;;;;;13.25;11.30;;;19.00;32.40;20.30;100738.00;;;;5119338;27;20435;-80
2021/06/12 02:43:05;;;;;;;13.48;11.80;;;19.00;33.40;20.20;100741.00;;;;5119966;27;20436;-80
2021/06/12 02:45:34;;;;;;;14.53;12.37;;;19.00;34.60;20.20;100750.00;;;;5135703;27;20435;-82
2021/06/12 02:48:09;;;;;;;25.27;12.63;;;18.90;35.20;20.10;100744.00;;;;5122341;27;21001;-82
2021/06/12 02:50:38;;;;;;;18.75;12.60;;;18.90;35.70;20.10;100744.00;;;;5139645;27;20424;-81
2021/06/12 02:53:10;;;;;;;15.35;12.10;;;18.80;35.90;20.00;100739.00;;;;5117834;28;20412;-80
2021/06/12 02:55:41;;;;;;;17.00;11.87;;;18.70;36.10;20.00;100736.00;;;;5119089;28;20491;-81
2021/06/12 02:58:11;;;;;;;15.43;12.20;;;18.80;36.30;20.00;100733.00;;;;5109967;28;20423;-80
2021/06/12 03:00:41;;;;;;;14.23;11.20;;;18.70;35.90;20.00;100740.00;;;;5113838;28;20439;-81
2021/06/12 03:03:13;;;;;;;16.65;12.13;;;18.70;35.30;19.90;100743.00;;;;5120459;27;20491;-80
2021/06/12 03:05:46;;;;;;;13.40;11.77;;;18.60;36.50;19.90;100748.00;;;;5117018;27;20443;-80
2021/06/12 03:08:16;;;;;;;17.25;12.60;;;18.60;37.00;19.80;100739.00;;;;5120353;27;20447;-80
2021/06/12 03:10:46;;;;;;;13.30;11.65;;;18.60;37.10;19.80;100744.00;;;;5123099;28;20427;-80
2021/06/12 03:13:22;;;;;;;14.77;11.20;;;18.50;36.70;19.80;100734.00;;;;5130655;27;20449;-81
2021/06/12 03:15:53;;;;;;;17.95;11.80;;;18.60;36.60;19.80;100736.00;;;;5130125;28;20406;-81
2021/06/12 03:18:22;;;;;;;13.38;11.82;;;18.50;37.50;19.80;100737.00;;;;5146440;27;20505;-81
2021/06/12 03:20:52;;;;;;;15.80;11.50;;;18.50;36.80;19.80;100750.00;;;;5126984;28;20523;-81
2021/06/12 03:23:22;;;;;;;12.90;11.60;;;18.50;37.60;19.80;100740.00;;;;5131636;28;20410;-80
2021/06/12 03:25:51;;;;;;;15.95;11.75;;;18.50;38.00;19.80;100748.00;;;;5134522;28;20400;-80
2021/06/12 03:28:20;;;;;;;12.57;11.27;;;18.50;38.40;19.80;100751.00;;;;5135774;28;20400;-80
2021/06/12 03:30:48;;;;;;;12.77;11.45;;;18.50;38.30;19.80;100738.00;;;;5130396;28;20492;-80
2021/06/12 03:33:17;;;;;;;13.37;11.97;;;18.60;38.70;19.90;100744.00;;;;5110598;28;20423;-80
2021/06/12 03:35:47;;;;;;;13.07;11.77;;;18.70;37.50;19.90;100752.00;;;;5107982;27;20516;-80
2021/06/12 03:38:15;;;;;;;13.65;11.77;;;18.70;37.50;19.90;100748.00;;;;5115609;27;20420;-81
2021/06/12 03:40:43;;;;;;;14.18;12.27;;;18.70;37.70;19.90;100751.00;;;;5112026;28;20431;-81
2021/06/12 03:43:11;;;;;;;12.30;10.93;;;18.70;37.90;19.80;100750.00;;;;5120533;28;20191;-81
2021/06/12 03:45:42;;;;;;;11.80;10.60;;;18.60;38.80;19.70;100756.00;;;;5118014;28;20475;-81
2021/06/12 03:48:11;;;;;;;13.70;12.20;;;18.50;39.80;19.90;100758.00;;;;5108585;27;20483;-82
2021/06/12 03:50:42;;;;;;;13.37;11.97;;;18.60;39.60;20.00;100768.00;;;;5117054;27;20416;-80
2021/06/12 03:53:10;;;;;;;13.75;12.35;;;18.60;38.40;20.00;100757.00;;;;5117009;28;20934;-81
2021/06/12 03:55:38;;;;;;;13.45;12.15;;;18.60;38.70;20.00;100765.00;;;;5116592;28;21144;-81
2021/06/12 03:58:06;;;;;;;15.60;11.55;;;18.60;38.40;20.10;100767.00;;;;5115890;28;20924;-81
2021/06/12 04:00:35;;;;;;;13.98;11.85;;;18.70;38.50;20.10;100765.00;;;;5119354;27;20447;-80
2021/06/12 04:03:03;;;;;;;13.93;12.40;;;18.70;38.40;20.20;100759.00;;;;5121824;28;20427;-81
2021/06/12 04:05:31;;;;;;;14.90;11.77;;;18.70;38.10;20.30;100762.00;;;;5124274;28;20428;-80
2021/06/12 04:08:01;;;;;;;14.03;12.13;;;18.80;38.10;20.30;100756.00;;;;5124228;28;20414;-81
2021/06/12 04:10:29;;;;;;;16.92;12.80;;;19.00;37.70;20.30;100764.00;;;;5122909;28;20414;-82
2021/06/12 04:12:57;;;;;;;13.95;12.55;;;18.80;36.70;20.30;100765.00;;;;5121428;28;20437;-81
2021/06/12 04:15:27;;;;;;;13.00;11.55;;;18.80;37.20;20.30;100763.00;;;;5118503;28;20420;-81
2021/06/12 04:18:01;;;;;;;14.55;12.20;;;18.80;36.00;20.30;100766.00;;;;5115726;28;20480;-81
2021/06/12 04:20:29;;;;;;;13.40;12.07;;;18.90;35.70;20.30;100770.00;;;;5110398;28;20479;-82
2021/06/12 04:22:56;;;;;;;14.20;11.90;;;19.00;33.20;20.40;100770.00;;;;5109917;28;20434;-81
2021/06/12 04:25:26;;;;;;;12.30;11.00;;;19.10;32.30;20.40;100750.00;;;;5108548;28;20416;-81
2021/06/12 04:27:54;;;;;;;13.20;11.80;;;19.20;31.80;20.50;100764.00;;;;5101023;28;20496;-81
2021/06/12 04:30:23;;;;;;;13.85;12.40;;;19.20;32.60;20.40;100775.00;;;;5098094;28;20916;-81
2021/06/12 04:32:59;;;;;;;13.00;11.70;;;19.20;33.20;20.40;100775.00;;;;5106938;28;20416;-81
2021/06/12 04:35:28;;;;;;;15.27;12.93;;;19.20;33.10;20.40;100757.00;;;;5107888;28;20420;-81
2021/06/12 04:37:59;;;;;;;13.70;12.40;;;19.20;31.50;20.50;100761.00;;;;5108402;28;20904;-81
2021/06/12 04:40:31;;;;;;;16.80;12.30;;;19.20;30.80;20.60;100760.00;;;;5102030;28;20408;-82
2021/06/12 04:42:59;;;;;;;13.50;12.10;;;19.30;30.50;20.60;100763.00;;;;5108064;28;20452;-81
2021/06/12 04:45:28;;;;;;;13.55;11.80;;;19.30;29.40;20.70;100772.00;;;;5107645;28;20413;-80
2021/06/12 04:47:56;;;;;;;16.37;11.90;;;19.40;29.20;20.80;100764.00;;;;5107909;28;20469;-80
2021/06/12 04:50:26;;;;;;;13.50;12.02;;;19.50;28.90;20.80;100780.00;;;;5117991;28;20412;-82
2021/06/12 04:52:54;;;;;;;13.60;12.20;;;19.60;29.30;21.00;100773.00;;;;5121465;28;20423;-82
2021/06/12 04:55:23;;;;;;;14.02;12.63;;;19.70;29.10;21.00;100773.00;;;;5118552;28;20482;-81
2021/06/12 04:57:52;;;;;;;14.73;11.63;;;19.80;28.30;21.00;100779.00;;;;5116587;28;20412;-81
2021/06/12 05:00:22;;;;;;;12.63;11.43;;;19.80;28.30;21.00;100769.00;;;;5108950;28;20505;-81
2021/06/12 05:02:50;;;;;;;13.75;12.05;;;19.80;27.70;21.10;100770.00;;;;5120573;28;20447;-81
2021/06/12 05:05:18;;;;;;;13.70;12.40;;;19.90;27.70;21.20;100759.00;;;;5108159;27;20423;-80
2021/06/12 05:07:46;;;;;;;12.82;11.35;;;20.00;27.20;21.30;100769.00;;;;5118122;28;20420;-81
2021/06/12 05:10:14;;;;;;;13.47;12.10;;;20.00;27.10;21.40;100778.00;;;;5121436;27;20487;-82
2021/06/12 05:12:42;;;;;;;14.00;11.70;;;20.10;27.00;21.40;100785.00;;;;5125165;27;20434;-81
2021/06/12 05:15:13;;;;;;;13.27;11.98;;;20.10;27.30;21.40;100782.00;;;;5117178;28;20534;-81
2021/06/12 05:17:42;;;;;;;14.30;12.90;;;20.10;28.00;21.40;100777.00;;;;5116932;28;20510;-81
2021/06/12 05:20:12;;;;;;;13.98;12.50;;;20.10;28.20;21.60;100789.00;;;;5109137;27;20431;-81
2021/06/12 05:22:43;;;;;;;14.65;13.35;;;20.30;28.90;21.60;100790.00;;;;5111943;27;20424;-81
2021/06/12 05:25:12;;;;;;;17.38;13.85;;;20.30;27.10;21.80;100787.00;;;;5108442;27;20958;-81
2021/06/12 05:27:40;;;;;;;15.15;13.65;;;20.50;25.60;22.10;100792.00;;;;5111823;27;20981;-81
2021/06/12 05:30:09;;;;;;;16.45;14.75;;;20.80;24.10;22.30;100772.00;;;;5115615;27;20449;-82
2021/06/12 05:32:39;;;;;;;15.30;13.80;;;21.00;22.00;22.60;100777.00;;;;5110551;28;20465;-82
2021/06/12 05:35:08;;;;;;;16.58;14.98;;;21.30;20.10;22.60;100777.00;;;;5125514;27;20426;-81
2021/06/12 05:37:36;;;;;;;16.33;14.80;;;21.30;18.70;22.60;100791.00;;;;5107567;28;20430;-81
2021/06/12 05:40:06;;;;;;;16.35;14.75;;;21.30;18.60;22.60;100794.00;;;;5110759;28;20452;-81
2021/06/12 05:42:34;;;;;;;15.75;14.15;;;21.30;18.70;22.70;100795.00;;;;5111579;28;20428;-81
2021/06/12 05:45:04;;;;;;;14.98;13.50;;;21.30;18.60;22.70;100799.00;;;;5127975;27;20500;-81
2021/06/12 05:47:32;;;;;;;15.32;13.82;;;21.30;17.90;22.60;100804.00;;;;5110915;28;20858;-81
2021/06/12 05:50:02;;;;;;;15.57;13.52;;;21.30;18.60;22.70;100797.00;;;;5108807;28;20792;-81
2021/06/12 05:52:31;;;;;;;15.00;13.50;;;21.30;19.90;22.80;100800.00;;;;5108703;28;20420;-81
2021/06/12 05:54:59;;;;;;;15.23;12.60;;;21.50;18.10;23.10;100794.00;;;;5101379;27;20422;-82
2021/06/12 05:57:27;;;;;;;13.57;12.23;;;21.80;16.70;23.30;100810.00;;;;5107608;28;20423;-81
2021/06/12 05:59:55;;;;;;;14.95;12.20;;;22.10;15.60;23.30;100815.00;;;;5101648;28;20451;-81
2021/06/12 06:02:23;;;;;;;13.65;12.23;;;22.10;15.20;23.40;100812.00;;;;5110611;28;20426;-81
2021/06/12 06:04:51;;;;;;;12.35;11.13;;;22.10;14.50;23.30;100812.00;;;;5108318;27;20415;-81
2021/06/12 06:07:20;;;;;;;13.50;11.90;;;22.00;14.50;23.40;100814.00;;;;5109727;28;20486;-81
2021/06/12 06:09:48;;;;;;;12.75;11.55;;;22.10;14.80;23.80;100806.00;;;;5107133;28;20432;-80
2021/06/12 06:12:16;;;;;;;13.23;12.02;;;22.40;13.60;24.30;100806.00;;;;5109731;28;20796;-80
2021/06/12 06:14:44;;;;;;;12.98;11.68;;;22.80;11.80;24.60;100807.00;;;;5108452;28;20427;-81
2021/06/12 06:17:12;;;;;;;12.30;11.00;;;23.20;7.80;24.80;100809.00;;;;5105507;28;20473;-81
2021/06/12 06:19:40;;;;;;;11.90;10.70;;;23.30;6.70;24.80;100811.00;;;;5107802;27;20420;-81
2021/06/12 06:22:08;;;;;;;12.45;11.20;;;23.40;4.70;24.90;100798.00;;;;5108675;28;20539;-81
2021/06/12 06:24:37;;;;;;;12.70;11.10;;;23.50;4.00;25.10;100796.00;;;;5110648;28;20459;-81
2021/06/12 06:27:06;;;;;;;11.95;10.85;;;23.60;2.90;25.10;100795.00;;;;5110642;27;20420;-81
2021/06/12 06:29:34;;;;;;;11.70;10.48;;;23.70;1.40;25.10;100803.00;;;;5110747;27;20446;-81
2021/06/12 06:32:03;;;;;;;13.38;11.07;;;23.70;1.00;25.10;100797.00;;;;5111495;28;20421;-80
2021/06/12 06:34:32;;;;;;;11.00;9.80;;;23.70;1.80;25.00;100800.00;;;;5111797;28;20424;-80
2021/06/12 06:37:00;;;;;;;12.38;10.05;;;23.60;2.40;24.90;100797.00;;;;5126211;27;20414;-81
2021/06/12 06:39:28;;;;;;;13.07;10.90;;;23.50;1.70;24.70;100801.00;;;;5113208;28;20477;-81
2021/06/12 06:41:57;;;;;;;13.10;9.50;;;23.40;1.70;24.80;100808.00;;;;5110473;27;20489;-82
2021/06/12 06:44:26;;;;;;;12.40;9.35;;;23.40;2.70;24.80;100809.00;;;;5113284;27;20436;-82
2021/06/12 06:46:54;;;;;;;11.00;9.50;;;23.40;2.50;24.60;100828.00;;;;5113696;27;20432;-81
2021/06/12 06:49:24;;;;;;;11.63;9.40;;;23.50;1.80;24.50;100824.00;;;;5123726;27;20412;-81
2021/06/12 06:51:53;;;;;;;11.32;9.20;;;23.40;2.30;24.30;100824.00;;;;5125739;27;20416;-80
2021/06/12 06:54:21;;;;;;;10.70;9.60;;;23.20;3.60;24.20;100822.00;;;;5112636;27;20420;-81
2021/06/12 06:56:49;;;;;;;11.30;9.20;;;23.10;4.10;24.60;100823.00;;;;5115541;28;20412;-80
2021/06/12 06:59:18;;;;;;;10.52;9.43;;;23.40;2.90;24.90;100826.00;;;;5113765;28;20416;-81
2021/06/12 07:01:46;;;;;;;10.52;9.00;;;23.60;1.30;25.10;100839.00;;;;5113413;27;20420;-82
2021/06/12 07:04:14;;;;;;;14.18;10.95;;;23.90;1.00;25.10;100832.00;;;;5108541;28;20413;-82
2021/06/12 07:06:42;;;;;;;9.68;8.40;;;24.00;1.00;25.10;100835.00;;;;5115138;27;20424;-82
2021/06/12 07:09:10;;;;;;;12.30;8.55;;;24.00;1.00;25.10;100831.00;;;;5130432;28;20400;-81
2021/06/12 07:11:39;;;;;;;10.70;8.57;;;24.00;1.00;25.10;100822.00;;;;5129339;27;20436;-81
2021/06/12 07:14:07;;;;;;;13.85;8.70;;;24.00;1.00;25.10;100816.00;;;;5127575;28;20423;-81
2021/06/12 07:16:37;;;;;;;12.38;8.70;;;24.10;1.00;25.30;100817.00;;;;5132735;28;20443;-81
2021/06/12 07:19:05;;;;;;;12.00;8.73;;;24.30;1.00;25.50;100811.00;;;;5138404;27;20426;-81
2021/06/12 07:21:33;;;;;;;12.90;8.67;;;24.50;1.00;25.50;100804.00;;;;5131360;27;20448;-80
2021/06/12 07:24:02;;;;;;;11.90;9.10;;;24.60;1.00;25.60;100801.00;;;;5117376;27;20579;-81
2021/06/12 07:26:30;;;;;;;11.27;8.63;;;24.70;1.00;25.80;100803.00;;;;5111204;28;20452;-81
2021/06/12 07:28:58;;;;;;;15.23;12.05;;;24.80;1.00;26.00;100803.00;;;;5122016;27;20448;-82
2021/06/12 07:31:39;;;;;;;11.93;9.30;;;25.00;1.00;26.20;100792.00;;;;5112133;28;20907;-81
2021/06/12 07:34:09;;;;;;;15.70;12.30;;;25.10;1.00;26.30;100786.00;;;;5108647;28;20774;-82
2021/06/12 07:36:37;;;;;;;14.30;9.93;;;25.20;1.00;26.50;100779.00;;;;5109413;28;20520;-82
2021/06/12 07:39:09;;;;;;;11.27;8.80;;;25.40;1.00;26.70;100780.00;;;;5112448;27;20461;-82
2021/06/12 07:41:39;;;;;;;13.73;9.95;;;25.70;1.00;26.90;100789.00;;;;5110010;27;20424;-81
2021/06/12 07:44:08;;;;;;;11.50;9.80;;;25.70;1.00;27.00;100775.00;;;;5109399;28;20475;-81
2021/06/12 07:46:38;;;;;;;13.25;10.50;;;25.80;1.00;27.10;100794.00;;;;5109247;28;20428;-81
2021/06/12 07:49:09;;;;;;;15.98;10.90;;;25.90;1.00;26.90;100791.00;;;;5102488;28;20514;-80
2021/06/12 07:51:38;;;;;;;12.60;10.25;;;25.70;1.00;26.70;100791.00;;;;5107837;28;20463;-82
2021/06/12 07:54:06;;;;;;;14.02;9.85;;;25.60;1.00;26.80;100790.00;;;;5108928;28;20430;-82
2021/06/12 07:56:35;;;;;;;15.35;10.02;;;25.70;1.00;26.90;100792.00;;;;5106758;28;20780;-82
2021/06/12 07:59:04;;;;;;;13.17;10.00;;;25.70;1.00;27.00;100794.00;;;;5112542;27;20447;-82
2021/06/12 08:01:34;;;;;;;15.88;11.38;;;25.70;1.00;27.30;100797.00;;;;5109952;28;20416;-81
2021/06/12 08:04:04;;;;;;;14.85;11.32;;;26.00;1.00;27.10;100793.00;;;;5126665;28;21645;-82
2021/06/12 08:06:32;;;;;;;13.57;10.30;;;26.10;1.00;27.20;100789.00;;;;5119036;27;20504;-82
2021/06/12 08:09:00;;;;;;;14.05;10.18;;;26.00;1.00;27.10;100787.00;;;;5117119;22;20440;-81
2021/06/12 08:11:28;;;;;;;13.27;10.02;;;25.90;1.00;27.20;100789.00;;;;5077526;28;20931;-80
2021/06/12 08:13:56;;;;;;;12.75;9.60;;;26.00;1.00;27.40;100787.00;;;;5074633;28;20478;-79
2021/06/12 08:16:25;;;;;;;15.43;10.30;;;26.20;1.00;27.60;100776.00;;;;5065734;28;20424;-79
2021/06/12 08:18:53;;;;;;;13.32;10.88;;;26.40;1.00;27.90;100786.00;;;;5076539;28;20450;-80
2021/06/12 08:21:25;;;;;;;13.77;10.05;;;26.60;1.00;27.90;100794.00;;;;5064946;28;20929;-79
2021/06/12 08:23:53;;;;;;;13.35;11.23;;;26.70;1.00;27.70;100793.00;;;;5054874;28;20428;-79
2021/06/12 08:26:21;;;;;;;13.88;10.15;;;26.60;1.00;27.70;100791.00;;;;5065888;28;20428;-79
2021/06/12 08:28:50;;;;;;;13.40;10.43;;;26.60;1.00;27.70;100794.00;;;;5065615;28;20695;-80
2021/06/12 08:31:18;;;;;;;13.67;11.30;;;26.60;1.00;27.80;100800.00;;;;5067485;28;20459;-80
2021/06/12 08:33:46;;;;;;;14.95;12.10;;;26.80;1.00;27.50;100795.00;;;;5067486;28;20397;-80
2021/06/12 08:36:14;;;;;;;15.38;12.15;;;26.60;1.00;27.30;100805.00;;;;5052262;28;20429;-83
2021/06/12 08:38:44;;;;;;;16.85;12.60;;;26.40;1.00;27.20;100809.00;;;;5084749;28;20459;-80
2021/06/12 08:41:12;;;;;;;17.02;13.43;;;26.40;1.00;27.00;100806.00;;;;5044118;28;20501;-79
2021/06/12 08:43:40;;;;;;;15.10;12.50;;;26.20;1.00;27.20;100810.00;;;;5064779;28;20433;-79
2021/06/12 08:46:25;;;;;;;15.88;12.20;;;26.30;1.00;27.30;100799.00;;;;5080877;28;20413;-82
2021/06/12 08:48:54;;;;;;;13.25;10.80;;;26.50;1.00;27.50;100802.00;;;;5073919;28;20455;-80
2021/06/12 08:51:23;;;;;;;12.50;10.20;;;26.70;1.00;27.50;100804.00;;;;5060275;28;20812;-80
2021/06/12 08:53:52;;;;;;;13.80;11.00;;;26.70;1.00;27.50;100804.00;;;;5056555;28;21087;-80
2021/06/12 08:56:21;;;;;;;11.50;9.63;;;26.80;1.00;27.40;100780.00;;;;5073630;28;20425;-81
2021/06/12 08:58:49;;;;;;;13.60;11.00;;;26.70;1.00;27.40;100799.00;;;;5055299;28;20455;-81
2021/06/12 09:01:20;;;;;;;14.27;10.95;;;26.60;1.00;27.30;100812.00;;;;5065751;28;20421;-77
2021/06/12 09:03:49;;;;;;;13.57;10.75;;;26.70;1.00;27.30;100806.00;;;;5050369;28;20448;-77
2021/06/12 09:06:19;;;;;;;10.90;8.90;;;26.70;1.00;27.10;100807.00;;;;5060227;28;20429;-76
2021/06/12 09:08:48;;;;;;;10.93;8.40;;;26.50;1.00;26.90;100806.00;;;;5044299;28;20979;-77
2021/06/12 09:11:20;;;;;;;8.95;7.30;;;26.30;1.00;26.90;100800.00;;;;5050205;28;20516;-77
2021/06/12 09:13:50;;;;;;;9.10;5.88;;;26.30;1.00;26.90;100805.00;;;;5053617;28;20451;-77
2021/06/12 09:16:28;;;;;;;8.70;6.50;;;26.30;1.00;27.00;100797.00;;;;5060611;28;20447;-76
2021/06/12 09:19:15;;;;;;;9.07;6.50;;;26.40;1.00;27.20;100799.00;;;;5070554;28;20456;-79
2021/06/12 09:21:45;;;;;;;10.18;6.10;;;26.60;1.00;27.40;100801.00;;;;5073178;28;20471;-77
2021/06/12 09:24:27;;;;;;;9.52;6.40;;;26.80;1.00;27.60;100801.00;;;;5057170;28;20518;-78
2021/06/12 09:26:59;;;;;;;8.27;6.30;;;26.90;1.00;27.60;100799.00;;;;5054518;28;20484;-77
2021/06/12 09:29:36;;;;;;;6.90;5.65;;;27.00;1.00;27.70;100797.00;;;;5055525;28;20421;-77
2021/06/12 09:32:12;;;;;;;8.15;5.70;;;27.10;1.00;27.40;100803.00;;;;5054015;28;20464;-77
2021/06/12 09:34:42;;;;;;;7.53;5.90;;;26.80;1.00;27.20;100792.00;;;;5050192;28;20486;-78
2021/06/12 09:37:12;;;;;;;7.37;5.50;;;26.60;1.00;27.30;100780.00;;;;5048968;28;20450;-77
2021/06/12 09:39:59;;;;;;;7.57;5.60;;;26.70;1.00;27.60;100808.00;;;;5032887;28;20515;-77
2021/06/12 09:42:45;;;;;;;8.23;5.90;;;26.90;1.00;27.60;100799.00;;;;5048390;28;20915;-77
2021/06/12 09:45:15;;;;;;;8.82;6.05;;;27.10;1.00;27.60;100795.00;;;;5049982;28;20975;-80
2021/06/12 09:47:44;;;;;;;7.75;5.80;;;27.10;1.00;27.50;100796.00;;;;5048102;28;20425;-78
2021/06/12 09:50:16;;;;;;;8.20;5.82;;;27.10;1.00;27.70;100795.00;;;;5049419;28;20516;-77
2021/06/12 09:52:46;;;;;;;8.02;5.50;;;27.20;1.00;27.60;100799.00;;;;5049371;28;20496;-78
2021/06/12 09:55:26;;;;;;;7.00;5.23;;;27.00;1.00;27.70;100773.00;;;;5052437;28;20542;-78
2021/06/12 09:57:59;;;;;;;7.40;5.40;;;27.10;1.00;27.70;100782.00;;;;5050493;28;20420;-78
2021/06/12 10:00:35;;;;;;;8.05;5.05;;;27.10;1.00;28.10;100794.00;;;;5049026;28;20471;-78
2021/06/12 10:03:16;;;;;;;7.55;5.22;;;27.50;1.00;28.40;100775.00;;;;5048907;28;20493;-77
2021/06/12 10:05:45;;;;;;;6.68;4.00;;;27.80;1.00;28.80;100790.00;;;;5071944;28;20433;-78
2021/06/12 10:08:15;;;;;;;6.10;3.80;;;28.20;1.00;29.10;100792.00;;;;5056216;28;20495;-77
2021/06/12 10:10:49;;;;;;;6.87;4.30;;;28.30;1.00;29.40;100787.00;;;;5055260;28;20421;-77
2021/06/12 10:13:20;;;;;;;7.90;4.20;;;28.50;1.00;29.50;100772.00;;;;5056127;28;20837;-77
2021/06/12 10:15:48;;;;;;;6.78;4.30;;;28.60;1.00;29.50;100798.00;;;;5048469;28;20456;-78
2021/06/12 10:18:22;;;;;;;5.80;4.10;;;28.70;1.00;29.40;100794.00;;;;5055534;28;20405;-76
2021/06/12 10:20:50;;;;;;;6.18;4.30;;;28.70;1.00;29.40;100794.00;;;;5073893;28;20425;-77
2021/06/12 10:23:19;;;;;;;6.10;4.07;;;28.70;1.00;29.20;100783.00;;;;5058640;28;20425;-78
2021/06/12 10:25:47;;;;;;;7.68;3.80;;;28.40;1.00;29.30;100795.00;;;;5053783;28;20453;-78
2021/06/12 10:28:16;;;;;;;4.95;3.60;;;28.50;1.00;29.30;100804.00;;;;5051976;28;20444;-77
2021/06/12 10:30:45;;;;;;;6.60;4.00;;;28.50;1.00;29.00;100803.00;;;;5052077;28;20438;-77
2021/06/12 10:33:17;;;;;;;5.87;4.23;;;28.20;1.00;29.00;100793.00;;;;5053405;28;20757;-77
2021/06/12 10:35:46;;;;;;;5.60;3.58;;;28.20;1.00;29.20;100769.00;;;;5052351;28;20417;-77
2021/06/12 10:38:15;;;;;;;5.47;3.50;;;28.50;1.00;29.20;100797.00;;;;5053415;28;20428;-77
2021/06/12 10:40:47;;;;;;;4.80;3.00;;;28.50;1.00;29.50;100794.00;;;;5051312;28;20417;-77
2021/06/12 10:43:17;;;;;;;4.65;2.90;;;28.80;1.00;29.40;100796.00;;;;5050904;28;20807;-77
2021/06/12 10:46:09;;;;;;;6.10;3.15;;;28.80;1.00;29.70;100770.00;;;;5068897;28;20422;-76
2021/06/12 10:48:44;;;;;;;4.97;3.00;;;28.90;1.00;30.00;100794.00;;;;5050979;28;20413;-78
2021/06/12 10:51:14;;;;;;;5.55;2.83;;;29.20;1.00;30.30;100790.00;;;;5048012;28;20903;-78
2021/06/12 10:53:48;;;;;;;6.18;2.50;;;29.30;1.00;30.30;100805.00;;;;5061821;28;20896;-78